createdAt,value
2019-03-23T00:00:53.772Z,8.03
2019-03-23T00:03:22.170Z,7.05
2019-03-23T00:05:50.674Z,6.78
2019-03-23T00:08:19.519Z,7.00
2019-03-23T00:10:47.923Z,7.22
2019-03-23T00:13:16.349Z,7.20
2019-03-23T00:15:45.888Z,7.45
2019-03-23T00:18:14.532Z,6.20
2019-03-23T00:20:43.981Z,6.85
2019-03-23T00:23:12.326Z,6.17
2019-03-23T00:25:40.625Z,6.95
2019-03-23T00:28:09.214Z,6.62
2019-03-23T00:30:37.669Z,6.17
2019-03-23T00:33:07.034Z,6.90
2019-03-23T00:35:36.237Z,6.42
2019-03-23T00:38:04.608Z,5.80
2019-03-23T00:40:32.984Z,6.10
2019-03-23T00:43:01.559Z,6.22
2019-03-23T00:45:30.354Z,6.12
2019-03-23T00:47:58.844Z,7.20
2019-03-23T00:50:27.558Z,8.65
2019-03-23T00:52:55.847Z,7.75
2019-03-23T00:55:24.204Z,8.53
2019-03-23T00:57:52.531Z,7.75
2019-03-23T01:00:20.772Z,7.95
2019-03-23T01:02:49.079Z,7.30
2019-03-23T01:05:17.395Z,7.37
2019-03-23T01:07:45.655Z,7.55
2019-03-23T01:10:14.068Z,7.17
2019-03-23T01:12:42.529Z,7.97
2019-03-23T01:15:11.177Z,8.05
2019-03-23T01:17:39.697Z,7.58
2019-03-23T01:20:10.071Z,7.42
2019-03-23T01:22:38.742Z,8.18
2019-03-23T01:25:07.514Z,7.30
2019-03-23T01:27:37.463Z,7.60
2019-03-23T01:30:07.441Z,7.03
2019-03-23T01:32:35.790Z,8.08
2019-03-23T01:35:04.824Z,7.53
2019-03-23T01:37:33.371Z,7.45
2019-03-23T01:40:01.752Z,6.60
2019-03-23T01:42:30.335Z,7.00
2019-03-23T01:44:58.554Z,7.12
2019-03-23T01:47:27.031Z,7.58
2019-03-23T01:49:55.475Z,7.30
2019-03-23T01:52:26.677Z,7.65
2019-03-23T01:54:55.293Z,7.00
2019-03-23T01:57:23.779Z,7.15
2019-03-23T01:59:52.250Z,7.92
2019-03-23T02:02:20.805Z,7.08
2019-03-23T02:04:51.519Z,7.65
2019-03-23T02:07:19.855Z,7.58
2019-03-23T02:09:48.239Z,7.22
2019-03-23T02:12:16.627Z,7.70
2019-03-23T02:14:44.986Z,7.30
2019-03-23T02:17:13.502Z,7.37
2019-03-23T02:19:42.514Z,7.15
2019-03-23T02:22:11.213Z,7.30
2019-03-23T02:24:39.519Z,7.08
2019-03-23T02:27:08.040Z,7.40
2019-03-23T02:29:36.349Z,7.40
2019-03-23T02:32:04.693Z,7.47
2019-03-23T02:34:33.165Z,7.42
2019-03-23T02:37:01.548Z,6.95
2019-03-23T02:39:30.123Z,7.03
2019-03-23T02:41:58.664Z,7.95
2019-03-23T02:44:27.089Z,7.40
2019-03-23T02:46:55.491Z,7.17
2019-03-23T02:49:23.934Z,5.83
2019-03-23T02:51:52.294Z,9.45
2019-03-23T02:54:22.176Z,8.18
2019-03-23T02:56:50.696Z,9.10
2019-03-23T02:59:19.102Z,10.00
2019-03-23T03:01:47.493Z,9.53
2019-03-23T03:04:16.133Z,10.20
2019-03-23T03:06:44.659Z,9.33
2019-03-23T03:09:13.050Z,9.33
2019-03-23T03:11:42.423Z,9.73
2019-03-23T03:14:10.697Z,9.45
2019-03-23T03:16:38.976Z,9.55
2019-03-23T03:19:07.354Z,9.95
2019-03-23T03:21:35.688Z,10.35
2019-03-23T03:24:04.095Z,10.32
2019-03-23T03:26:32.530Z,11.30
2019-03-23T03:29:00.903Z,12.23
2019-03-23T03:31:29.499Z,11.73
2019-03-23T03:34:03.728Z,12.10
2019-03-23T03:36:32.424Z,11.85
2019-03-23T03:39:00.853Z,13.03
2019-03-23T03:41:29.212Z,13.08
2019-03-23T03:43:57.631Z,12.93
2019-03-23T03:46:26.125Z,13.78
2019-03-23T03:48:54.666Z,13.95
2019-03-23T03:51:23.935Z,14.58
2019-03-23T03:53:52.911Z,14.13
2019-03-23T03:56:21.619Z,13.60
2019-03-23T03:58:49.989Z,13.78
2019-03-23T04:01:18.391Z,15.32
2019-03-23T04:03:47.025Z,14.60
2019-03-23T04:06:15.404Z,14.60
2019-03-23T04:08:43.793Z,13.85
2019-03-23T04:11:12.140Z,14.35
2019-03-23T04:13:40.462Z,14.43
2019-03-23T04:16:09.281Z,14.98
2019-03-23T04:18:37.732Z,14.47
2019-03-23T04:21:06.044Z,15.13
2019-03-23T04:23:34.522Z,13.40
2019-03-23T04:26:02.840Z,13.93
2019-03-23T04:28:31.111Z,13.65
2019-03-23T04:30:59.573Z,13.03
2019-03-23T04:33:27.796Z,13.50
2019-03-23T04:35:57.766Z,13.85
2019-03-23T04:38:26.188Z,12.88
2019-03-23T04:40:55.231Z,12.53
2019-03-23T04:43:23.649Z,13.03
2019-03-23T04:45:52.011Z,13.30
2019-03-23T04:48:20.302Z,13.45
2019-03-23T04:50:48.682Z,12.45
2019-03-23T04:53:17.243Z,13.50
2019-03-23T04:55:45.561Z,12.18
2019-03-23T04:58:14.846Z,11.93
2019-03-23T05:00:43.239Z,13.13
2019-03-23T05:03:11.569Z,11.93
2019-03-23T05:05:39.951Z,12.50
2019-03-23T05:08:09.461Z,12.78
2019-03-23T05:10:37.897Z,13.00
2019-03-23T05:13:07.267Z,12.75
2019-03-23T05:15:35.674Z,12.70
2019-03-23T05:18:04.073Z,12.73
2019-03-23T05:20:32.352Z,12.15
2019-03-23T05:23:00.733Z,12.07
2019-03-23T05:25:29.345Z,12.07
2019-03-23T05:27:57.736Z,12.68
2019-03-23T05:30:26.255Z,12.68
2019-03-23T05:32:54.928Z,11.73
2019-03-23T05:35:23.290Z,12.78
2019-03-23T05:37:51.563Z,11.90
2019-03-23T05:40:20.849Z,11.38
2019-03-23T05:42:49.260Z,12.53
2019-03-23T05:45:17.484Z,12.65
2019-03-23T05:47:45.790Z,12.93
2019-03-23T05:50:14.181Z,12.18
2019-03-23T05:52:42.668Z,13.15
2019-03-23T05:55:11.218Z,12.60
2019-03-23T05:57:39.835Z,12.80
2019-03-23T06:00:12.183Z,13.38
2019-03-23T06:02:40.456Z,12.28
2019-03-23T06:05:08.915Z,13.00
2019-03-23T06:07:39.634Z,13.35
2019-03-23T06:10:08.060Z,13.18
2019-03-23T06:12:36.586Z,13.13
2019-03-23T06:15:05.829Z,14.10
2019-03-23T06:17:34.128Z,13.83
2019-03-23T06:20:04.800Z,14.15
2019-03-23T06:22:34.131Z,15.10
2019-03-23T06:25:02.646Z,12.63
2019-03-23T06:27:32.055Z,14.75
2019-03-23T06:30:00.409Z,13.10
2019-03-23T06:32:28.667Z,14.60
2019-03-23T06:34:56.966Z,14.50
2019-03-23T06:37:25.337Z,14.33
2019-03-23T06:39:58.251Z,14.98
2019-03-23T06:42:26.792Z,14.85
2019-03-23T06:44:55.587Z,15.03
2019-03-23T06:47:23.896Z,14.80
2019-03-23T06:49:52.354Z,15.25
2019-03-23T06:52:20.691Z,14.65
2019-03-23T06:54:49.309Z,14.15
2019-03-23T06:57:18.566Z,14.33
2019-03-23T06:59:47.152Z,15.25
2019-03-23T07:02:15.442Z,13.65
2019-03-23T07:04:43.930Z,14.40
2019-03-23T07:07:15.288Z,13.98
2019-03-23T07:09:43.393Z,14.25
2019-03-23T07:12:11.926Z,14.30
2019-03-23T07:14:40.466Z,14.18
2019-03-23T07:17:39.960Z,15.45
2019-03-23T07:20:09.977Z,15.38
2019-03-23T07:22:38.464Z,15.08
2019-03-23T07:25:08.687Z,13.80
2019-03-23T07:27:37.204Z,14.70
2019-03-23T07:30:06.553Z,14.85
2019-03-23T07:32:34.864Z,14.93
2019-03-23T07:35:03.328Z,14.80
2019-03-23T07:37:31.675Z,14.23
2019-03-23T07:40:00.334Z,14.50
2019-03-23T07:42:28.789Z,15.18
2019-03-23T07:44:57.984Z,15.10
2019-03-23T07:47:26.619Z,14.07
2019-03-23T07:49:55.100Z,14.53
2019-03-23T07:52:23.462Z,14.25
2019-03-23T07:54:51.947Z,14.50
2019-03-23T07:57:22.328Z,14.85
2019-03-23T07:59:50.951Z,15.30
2019-03-23T08:02:19.595Z,14.78
2019-03-23T08:04:48.459Z,14.40
2019-03-23T08:07:18.333Z,14.65
2019-03-23T08:09:48.286Z,15.00
2019-03-23T08:12:16.754Z,14.80
2019-03-23T08:14:45.151Z,15.10
2019-03-23T08:17:13.598Z,14.40
2019-03-23T08:19:42.183Z,15.00
2019-03-23T08:22:12.329Z,14.87
2019-03-23T08:24:41.743Z,16.73
2019-03-23T08:27:10.186Z,16.77
2019-03-23T08:29:38.620Z,16.02
2019-03-23T08:32:09.542Z,15.65
2019-03-23T08:34:37.863Z,15.85
2019-03-23T08:37:06.257Z,17.05
2019-03-23T08:39:34.657Z,16.25
2019-03-23T08:42:02.943Z,15.88
2019-03-23T08:44:31.679Z,16.62
2019-03-23T08:47:00.367Z,16.12
2019-03-23T08:49:28.740Z,15.28
2019-03-23T08:51:57.790Z,16.52
2019-03-23T08:54:26.450Z,17.07
2019-03-23T08:56:54.836Z,16.90
2019-03-23T08:59:23.379Z,17.02
2019-03-23T09:01:52.076Z,18.42
2019-03-23T09:04:20.665Z,18.25
2019-03-23T09:06:54.200Z,16.40
2019-03-23T09:09:22.909Z,16.45
2019-03-23T09:11:51.437Z,18.32
2019-03-23T09:14:20.128Z,18.48
2019-03-23T09:16:48.583Z,17.32
2019-03-23T09:19:17.308Z,18.70
2019-03-23T09:21:46.001Z,18.42
2019-03-23T09:24:14.599Z,18.07
2019-03-23T09:26:43.279Z,18.02
2019-03-23T09:29:11.980Z,17.82
2019-03-23T09:31:44.426Z,16.93
2019-03-23T09:34:13.905Z,18.32
2019-03-23T09:36:42.586Z,18.65
2019-03-23T09:39:11.386Z,19.12
2019-03-23T09:41:40.112Z,18.32
2019-03-23T09:44:08.709Z,19.15
2019-03-23T09:46:37.112Z,18.17
2019-03-23T09:49:06.999Z,18.82
2019-03-23T09:51:39.732Z,17.65
2019-03-23T09:54:08.784Z,18.23
2019-03-23T09:56:37.284Z,19.10
2019-03-23T09:59:06.445Z,17.12
2019-03-23T10:01:35.505Z,17.75
2019-03-23T10:04:04.169Z,18.55
2019-03-23T10:06:32.708Z,16.80
2019-03-23T10:09:01.458Z,18.35
2019-03-23T10:11:31.680Z,18.25
2019-03-23T10:14:00.343Z,17.80
2019-03-23T10:16:29.134Z,19.75
2019-03-23T10:18:57.663Z,19.25
2019-03-23T10:21:26.159Z,18.67
2019-03-23T10:23:55.071Z,19.02
2019-03-23T10:26:23.764Z,19.90
2019-03-23T10:28:52.363Z,19.27
2019-03-23T10:31:20.939Z,18.80
2019-03-23T10:33:49.503Z,19.30
2019-03-23T10:36:18.136Z,17.98
2019-03-23T10:38:46.640Z,19.37
2019-03-23T10:41:15.053Z,19.02
2019-03-23T10:43:43.542Z,19.52
2019-03-23T10:46:12.084Z,19.35
2019-03-23T10:48:40.632Z,19.92
2019-03-23T10:51:09.188Z,18.40
2019-03-23T10:53:37.866Z,19.62
2019-03-23T10:56:06.316Z,20.85
2019-03-23T10:58:35.037Z,21.97
2019-03-23T11:01:03.936Z,21.02
2019-03-23T11:03:32.489Z,20.57
2019-03-23T11:06:00.978Z,21.75
2019-03-23T11:08:29.488Z,19.25
2019-03-23T11:10:58.130Z,20.12
2019-03-23T11:13:26.915Z,20.55
2019-03-23T11:15:55.571Z,22.73
2019-03-23T11:18:24.215Z,21.02
2019-03-23T11:20:52.666Z,21.75
2019-03-23T11:23:21.515Z,22.00
2019-03-23T11:25:50.092Z,21.37
2019-03-23T11:28:18.775Z,22.37
2019-03-23T11:30:47.359Z,22.15
2019-03-23T11:33:15.948Z,22.30
2019-03-23T11:35:44.478Z,21.93
2019-03-23T11:38:12.980Z,21.35
2019-03-23T11:40:52.054Z,21.80
2019-03-23T11:43:11.859Z,21.62
2019-03-23T11:45:42.618Z,22.27
2019-03-23T11:48:11.031Z,21.45
2019-03-23T11:50:39.471Z,22.27
2019-03-23T11:53:08.535Z,21.75
2019-03-23T11:55:37.027Z,23.62
2019-03-23T11:58:05.412Z,22.85
2019-03-23T12:00:33.972Z,23.73
2019-03-23T12:03:02.311Z,24.30
2019-03-23T12:05:30.748Z,22.77
2019-03-23T12:08:00.493Z,24.40
2019-03-23T12:10:29.165Z,23.85
2019-03-23T12:12:57.665Z,24.07
2019-03-23T12:15:26.114Z,23.07
2019-03-23T12:17:54.612Z,24.20
2019-03-23T12:20:23.489Z,21.97
2019-03-23T12:22:52.159Z,23.92
2019-03-23T12:25:20.543Z,23.65
2019-03-23T12:27:49.072Z,22.48
2019-03-23T12:30:17.988Z,24.82
2019-03-23T12:32:46.426Z,23.90
2019-03-23T12:35:14.932Z,24.35
2019-03-23T12:37:43.588Z,23.67
2019-03-23T12:40:12.093Z,24.02
2019-03-23T12:42:40.623Z,23.20
2019-03-23T12:45:10.376Z,22.55
2019-03-23T12:47:38.926Z,23.95
2019-03-23T12:50:07.585Z,25.32
2019-03-23T12:52:38.704Z,25.55
2019-03-23T12:55:07.649Z,23.22
2019-03-23T12:57:36.120Z,23.77
2019-03-23T13:00:06.185Z,23.85
2019-03-23T13:02:34.731Z,23.40
2019-03-23T13:05:04.192Z,23.30
2019-03-23T13:07:32.755Z,23.47
2019-03-23T13:10:02.455Z,24.60
2019-03-23T13:12:31.006Z,24.00
2019-03-23T13:14:59.692Z,22.00
2019-03-23T13:17:28.332Z,23.62
2019-03-23T13:19:56.997Z,23.85
2019-03-23T13:22:25.680Z,24.57
2019-03-23T13:24:55.288Z,25.65
2019-03-23T13:27:24.308Z,24.85
2019-03-23T13:29:56.859Z,25.00
2019-03-23T13:32:25.994Z,24.75
2019-03-23T13:34:55.592Z,24.12
2019-03-23T13:37:24.249Z,27.25
2019-03-23T13:39:52.766Z,25.15
2019-03-23T13:42:21.250Z,26.33
2019-03-23T13:44:50.410Z,25.37
2019-03-23T13:47:21.976Z,26.95
2019-03-23T13:49:50.607Z,27.17
2019-03-23T13:52:19.212Z,28.32
2019-03-23T13:54:47.761Z,27.90
2019-03-23T13:57:16.450Z,29.23
2019-03-23T13:59:44.884Z,28.47
2019-03-23T14:02:13.472Z,28.65
2019-03-23T14:04:42.746Z,27.60
2019-03-23T14:07:12.181Z,29.40
2019-03-23T14:09:42.559Z,29.85
2019-03-23T14:12:11.103Z,28.62
2019-03-23T14:14:39.684Z,29.55
2019-03-23T14:17:08.128Z,29.23
2019-03-23T14:19:36.879Z,29.63
2019-03-23T14:22:05.431Z,29.37
2019-03-23T14:24:33.907Z,31.87
2019-03-23T14:27:02.638Z,30.48
2019-03-23T14:29:31.175Z,30.12
2019-03-23T14:31:59.560Z,29.07
2019-03-23T14:34:28.034Z,30.37
2019-03-23T14:36:56.606Z,28.55
2019-03-23T14:39:25.361Z,30.10
2019-03-23T14:42:04.760Z,30.05
2019-03-23T14:44:30.245Z,28.35
2019-03-23T14:46:59.040Z,28.07
2019-03-23T14:49:28.865Z,28.38
2019-03-23T14:51:57.953Z,31.20
2019-03-23T14:54:26.569Z,30.37
2019-03-23T14:56:55.361Z,30.82
2019-03-23T14:59:23.946Z,30.08
2019-03-23T15:01:52.647Z,31.23
2019-03-23T15:04:21.358Z,31.25
2019-03-23T15:06:50.275Z,30.27
2019-03-23T15:09:19.091Z,30.60
2019-03-23T15:11:48.288Z,32.20
2019-03-23T15:14:17.019Z,30.90
2019-03-23T15:16:45.644Z,30.70
2019-03-23T15:19:15.629Z,32.23
2019-03-23T15:21:44.188Z,32.10
2019-03-23T15:24:12.585Z,31.57
2019-03-23T15:26:41.071Z,31.40
2019-03-23T15:29:09.613Z,32.15
2019-03-23T15:31:38.595Z,31.02
2019-03-23T15:34:09.087Z,31.45
2019-03-23T15:36:37.648Z,33.83
2019-03-23T15:39:06.987Z,32.85
2019-03-23T15:41:35.392Z,34.63
2019-03-23T15:44:03.786Z,34.08
2019-03-23T15:46:32.606Z,34.83
2019-03-23T15:49:01.280Z,34.55
2019-03-23T15:51:29.763Z,34.88
2019-03-23T15:53:58.134Z,35.73
2019-03-23T15:56:26.894Z,34.83
2019-03-23T15:58:55.354Z,34.25
2019-03-23T16:01:24.688Z,34.98
2019-03-23T16:03:53.044Z,34.80
2019-03-23T16:06:21.518Z,34.20
2019-03-23T16:08:50.337Z,33.53
2019-03-23T16:11:18.758Z,33.18
2019-03-23T16:13:47.339Z,33.83
2019-03-23T16:16:15.893Z,34.27
2019-03-23T16:18:44.215Z,33.28
2019-03-23T16:21:12.715Z,33.92
2019-03-23T16:23:41.328Z,35.90
2019-03-23T16:26:09.703Z,34.40
2019-03-23T16:28:38.134Z,33.90
2019-03-23T16:31:06.553Z,32.60
2019-03-23T16:33:35.224Z,34.95
2019-03-23T16:36:03.710Z,35.68
2019-03-23T16:38:32.513Z,34.08
2019-03-23T16:41:01.355Z,34.73
2019-03-23T16:43:29.742Z,34.85
2019-03-23T16:45:58.151Z,34.05
2019-03-23T16:48:27.642Z,34.35
2019-03-23T16:50:56.488Z,33.80
2019-03-23T16:53:24.742Z,32.83
2019-03-23T16:55:53.384Z,33.90
2019-03-23T16:58:21.626Z,34.15
2019-03-23T17:00:52.119Z,34.98
2019-03-23T17:03:20.839Z,33.70
2019-03-23T17:05:49.469Z,31.90
2019-03-23T17:08:18.684Z,35.20
2019-03-23T17:10:47.054Z,35.23
2019-03-23T17:13:15.775Z,34.95
2019-03-23T17:15:44.868Z,33.65
2019-03-23T17:18:13.697Z,34.20
2019-03-23T17:20:42.172Z,34.08
2019-03-23T17:23:10.551Z,31.12
2019-03-23T17:25:39.355Z,33.83
2019-03-23T17:28:07.967Z,31.97
2019-03-23T17:30:36.328Z,33.60
2019-03-23T17:33:04.942Z,34.88
2019-03-23T17:35:33.544Z,34.27
2019-03-23T17:38:02.264Z,34.58
2019-03-23T17:40:31.608Z,32.13
2019-03-23T17:43:05.982Z,31.50
2019-03-23T17:45:30.775Z,32.63
2019-03-23T17:47:59.355Z,35.10
2019-03-23T17:50:27.915Z,35.15
2019-03-23T17:52:56.430Z,35.45
2019-03-23T17:55:24.951Z,34.27
2019-03-23T17:57:53.380Z,34.43
2019-03-23T18:00:22.329Z,34.75
2019-03-23T18:02:51.160Z,34.27
2019-03-23T18:05:19.890Z,35.80
2019-03-23T18:07:48.299Z,35.05
2019-03-23T18:10:16.906Z,36.05
2019-03-23T18:12:45.345Z,36.65
2019-03-23T18:15:13.833Z,41.37
2019-03-23T18:17:42.463Z,39.67
2019-03-23T18:20:12.319Z,37.73
2019-03-23T18:22:41.094Z,38.95
2019-03-23T18:25:09.846Z,40.23
2019-03-23T18:27:38.343Z,37.98
2019-03-23T18:30:17.359Z,39.98
2019-03-23T18:32:52.407Z,41.55
2019-03-23T18:35:27.136Z,41.28
2019-03-23T18:37:58.251Z,40.90
2019-03-23T18:40:26.775Z,37.67
2019-03-23T18:42:55.682Z,38.83
2019-03-23T18:45:24.432Z,39.30
2019-03-23T18:47:53.233Z,41.75
2019-03-23T18:50:21.798Z,40.12
2019-03-23T18:52:50.260Z,39.13
2019-03-23T18:55:18.992Z,37.83
2019-03-23T18:57:47.620Z,37.78
2019-03-23T19:00:25.907Z,37.60
2019-03-23T19:02:54.651Z,38.28
2019-03-23T19:05:23.342Z,37.60
2019-03-23T19:07:52.640Z,36.17
2019-03-23T19:10:21.687Z,36.93
2019-03-23T19:12:50.512Z,39.10
2019-03-23T19:15:18.996Z,37.60
2019-03-23T19:17:48.879Z,34.27
2019-03-23T19:20:17.402Z,46.40
2019-03-23T19:22:46.139Z,40.80
2019-03-23T19:25:18.156Z,33.08
2019-03-23T19:27:45.030Z,36.42
2019-03-23T19:30:14.896Z,31.97
2019-03-23T19:32:43.337Z,29.07
2019-03-23T19:35:12.064Z,28.67
2019-03-23T19:37:42.492Z,27.25
2019-03-23T19:40:11.384Z,28.40
2019-03-23T19:42:41.587Z,27.48
2019-03-23T19:45:10.477Z,27.07
2019-03-23T19:47:40.063Z,27.55
2019-03-23T19:50:09.084Z,27.45
2019-03-23T19:52:37.659Z,27.00
2019-03-23T19:55:07.460Z,27.75
2019-03-23T19:57:36.112Z,28.70
2019-03-23T20:00:06.909Z,29.20
2019-03-23T20:02:35.707Z,31.97
2019-03-23T20:05:04.528Z,31.85
2019-03-23T20:07:33.553Z,29.85
2019-03-23T20:10:02.678Z,29.90
2019-03-23T20:12:31.260Z,28.75
2019-03-23T20:15:00.318Z,27.22
2019-03-23T20:17:29.144Z,30.72
2019-03-23T20:19:57.825Z,25.90
2019-03-23T20:22:29.280Z,24.55
2019-03-23T20:24:57.969Z,26.93
2019-03-23T20:27:26.576Z,25.15
2019-03-23T20:29:55.193Z,23.65
2019-03-23T20:32:24.530Z,24.57
2019-03-23T20:34:53.093Z,24.15
2019-03-23T20:37:21.592Z,24.77
2019-03-23T20:39:50.495Z,24.77
2019-03-23T20:42:19.130Z,24.35
2019-03-23T20:44:47.815Z,25.12
2019-03-23T20:47:16.181Z,23.95
2019-03-23T20:49:44.763Z,24.52
2019-03-23T20:52:13.447Z,27.50
2019-03-23T20:54:41.996Z,22.65
2019-03-23T20:57:10.338Z,24.40
2019-03-23T20:59:39.120Z,22.37
2019-03-23T21:02:07.556Z,23.18
2019-03-23T21:04:36.127Z,23.65
2019-03-23T21:07:04.758Z,22.65
2019-03-23T21:09:33.286Z,22.52
2019-03-23T21:12:01.877Z,23.38
2019-03-23T21:14:30.532Z,22.75
2019-03-23T21:16:59.461Z,24.10
2019-03-23T21:19:28.228Z,24.00
2019-03-23T21:21:57.211Z,24.55
2019-03-23T21:24:25.740Z,23.35
2019-03-23T21:26:54.373Z,21.62
2019-03-23T21:29:22.925Z,23.45
2019-03-23T21:31:51.842Z,22.32
2019-03-23T21:34:20.682Z,23.18
2019-03-23T21:36:49.419Z,24.05
2019-03-23T21:39:17.815Z,23.85
2019-03-23T21:41:46.808Z,23.65
2019-03-23T21:44:15.663Z,23.30
2019-03-23T21:46:44.357Z,22.60
2019-03-23T21:49:12.820Z,23.87
2019-03-23T21:51:41.370Z,22.82
2019-03-23T21:54:10.066Z,23.27
2019-03-23T21:56:39.003Z,24.55
2019-03-23T21:59:11.938Z,23.92
2019-03-23T22:01:41.587Z,22.87
2019-03-23T22:04:10.068Z,24.27
2019-03-23T22:06:39.273Z,23.42
2019-03-23T22:09:08.006Z,24.30
2019-03-23T22:11:36.620Z,24.63
2019-03-23T22:14:05.509Z,22.58
2019-03-23T22:16:34.350Z,24.87
2019-03-23T22:19:06.038Z,25.32
2019-03-23T22:21:35.708Z,25.82
2019-03-23T22:24:04.216Z,24.43
2019-03-23T22:26:33.084Z,24.47
2019-03-23T22:29:01.606Z,24.67
2019-03-23T22:31:31.645Z,25.50
2019-03-23T22:34:00.731Z,27.10
2019-03-23T22:36:29.377Z,26.42
2019-03-23T22:38:58.374Z,26.77
2019-03-23T22:41:27.003Z,24.57
2019-03-23T22:43:55.583Z,25.37
2019-03-23T22:46:24.406Z,25.90
2019-03-23T22:48:53.101Z,26.10
2019-03-23T22:51:22.057Z,24.92
2019-03-23T22:53:50.779Z,26.48
2019-03-23T22:56:19.451Z,25.75
2019-03-23T22:58:47.983Z,25.62
2019-03-23T23:01:16.363Z,25.43
2019-03-23T23:03:45.023Z,26.40
2019-03-23T23:06:14.589Z,26.00
2019-03-23T23:08:43.107Z,24.63
2019-03-23T23:11:11.516Z,25.50
2019-03-23T23:13:39.988Z,26.12
2019-03-23T23:16:08.646Z,26.15
2019-03-23T23:18:37.130Z,26.07
2019-03-23T23:21:05.758Z,25.08
2019-03-23T23:23:39.431Z,26.57
2019-03-23T23:26:08.137Z,25.50
2019-03-23T23:28:36.942Z,25.30
2019-03-23T23:31:05.321Z,27.65
2019-03-23T23:33:33.858Z,26.48
2019-03-23T23:36:02.445Z,25.75
2019-03-23T23:38:30.914Z,25.00
2019-03-23T23:41:00.631Z,25.15
2019-03-23T23:43:29.018Z,24.67
2019-03-23T23:45:57.528Z,26.05
2019-03-23T23:48:26.137Z,24.90
2019-03-23T23:50:54.667Z,25.68
2019-03-23T23:53:23.191Z,25.48
2019-03-23T23:55:51.740Z,25.32
2019-03-23T23:58:20.233Z,26.07
